Time;durP1;ratioP1;P1;durP2;ratioP2;P2;SDS_P1;SDS_P2;PMS_P1;PMS_P2;Temp;Humidity;BMP_temperature;BMP_pressure;BME280_temperature;BME280_humidity;BME280_pressure;Samples;Min_cycle;Max_cycle;Signal;HPM_P1;HPM_P2
2023/11/10 00:00:12;;;;;;;1.67;1.57;;;8.20;88.60;;;7.26;91.50;96731.72;4948388;28;20455;-73
2023/11/10 00:02:39;;;;;;;4.10;1.77;;;8.20;88.70;;;7.40;91.27;96743.13;4945006;29;20962;-71
2023/11/10 00:05:08;;;;;;;2.13;1.93;;;8.20;88.50;;;6.94;91.17;96668.28;4944138;29;20462;-74
2023/11/10 00:07:35;;;;;;;1.70;1.60;;;8.20;88.50;;;7.39;90.75;96736.94;4946747;28;20462;-72
2023/11/10 00:10:04;;;;;;;2.20;2.00;;;8.20;88.40;;;7.36;90.30;96732.84;4948300;28;20791;-70
2023/11/10 00:12:32;;;;;;;1.83;1.73;;;8.20;88.10;;;7.36;90.53;96719.41;4947367;28;20478;-73
2023/11/10 00:15:00;;;;;;;1.67;1.57;;;8.30;88.20;;;7.54;89.33;96723.09;4947415;28;20790;-72
2023/11/10 00:17:27;;;;;;;2.07;1.87;;;8.30;87.80;;;7.70;88.82;96723.50;4948444;28;20446;-73
2023/11/10 00:19:55;;;;;;;2.80;2.00;;;8.40;87.90;;;7.61;89.37;96726.50;4948130;28;20483;-72
2023/11/10 00:22:22;;;;;;;2.10;1.90;;;8.40;87.60;;;7.57;88.98;96711.06;4943691;28;20470;-72
2023/11/10 00:24:50;;;;;;;2.03;1.93;;;8.40;87.30;;;7.57;88.92;96705.69;4944242;28;20943;-71
2023/11/10 00:27:17;;;;;;;1.63;1.53;;;8.40;87.30;;;7.57;88.50;96709.22;4946682;29;20822;-73
2023/11/10 00:29:45;;;;;;;2.00;1.80;;;8.40;87.00;;;7.62;88.55;96708.53;4946829;28;20477;-72
2023/11/10 00:32:14;;;;;;;2.00;1.80;;;8.40;86.90;;;7.78;87.83;96707.03;4948396;29;20489;-72
2023/11/10 00:34:42;;;;;;;1.83;1.73;;;8.50;86.90;;;7.12;87.85;96629.00;4950623;28;20455;-71
2023/11/10 00:37:09;;;;;;;2.03;1.77;;;8.50;86.80;;;7.63;88.41;96700.22;4947518;29;20451;-72
2023/11/10 00:39:37;;;;;;;1.87;1.70;;;8.40;86.70;;;7.60;88.10;96702.56;4949922;28;20460;-72
2023/11/10 00:42:04;;;;;;;2.90;1.80;;;8.40;86.50;;;7.45;88.01;96676.09;4947766;28;20559;-71
2023/11/10 00:44:32;;;;;;;2.20;1.80;;;8.40;86.50;;;7.69;87.19;96695.78;4947978;28;20778;-71
2023/11/10 00:46:59;;;;;;;2.37;2.17;;;8.50;86.60;;;7.78;87.66;96688.22;4946673;28;20468;-72
2023/11/10 00:49:27;;;;;;;2.00;1.80;;;8.50;86.50;;;7.68;87.58;96706.78;4946613;28;20830;-71
2023/11/10 00:51:54;;;;;;;2.83;2.43;;;8.50;86.40;;;7.74;87.68;96692.44;4945537;28;20478;-71
2023/11/10 00:54:22;;;;;;;2.53;2.20;;;8.50;86.30;;;7.70;87.18;96677.81;4947958;28;20467;-73
2023/11/10 00:56:49;;;;;;;2.10;1.90;;;8.50;86.20;;;7.62;87.06;96687.81;4947842;28;20466;-70
2023/11/10 00:59:17;;;;;;;2.50;2.10;;;8.50;86.20;;;7.92;87.30;96710.38;4947403;28;20461;-72
2023/11/10 01:01:44;;;;;;;2.43;2.23;;;8.60;86.60;;;7.90;87.95;96710.59;4945387;28;20468;-71
2023/11/10 01:04:11;;;;;;;3.10;2.60;;;8.60;86.80;;;7.90;87.59;96699.03;4962324;28;20684;-72
2023/11/10 01:06:39;;;;;;;2.60;2.40;;;8.60;86.70;;;7.79;88.10;96693.38;4947627;28;20454;-72
2023/11/10 01:09:06;;;;;;;2.87;2.53;;;8.50;86.80;;;7.76;88.43;96695.69;4949606;28;20480;-72
2023/11/10 01:11:34;;;;;;;3.10;1.77;;;8.50;87.00;;;7.84;88.52;96694.56;4949274;28;20466;-72
2023/11/10 01:14:04;;;;;;;2.77;2.57;;;8.50;87.40;;;7.80;89.21;96691.50;4947812;28;20467;-72
2023/11/10 01:16:31;;;;;;;1.70;1.60;;;8.50;87.50;;;7.73;88.50;96691.59;4942950;29;20599;-72
2023/11/10 01:18:59;;;;;;;3.60;2.80;;;8.50;87.30;;;7.70;89.42;96693.94;4948184;28;20467;-72
2023/11/10 01:21:26;;;;;;;3.93;2.80;;;8.40;87.40;;;7.84;88.74;96683.78;4948775;28;20454;-72
2023/11/10 01:23:55;;;;;;;3.13;2.67;;;8.50;87.70;;;7.81;88.19;96679.72;4946081;28;20459;-73
2023/11/10 01:26:24;;;;;;;2.77;2.57;;;8.50;87.30;;;7.73;88.01;96674.66;4945574;28;20451;-71
2023/11/10 01:28:52;;;;;;;2.93;2.43;;;8.50;86.80;;;7.76;88.76;96675.03;4946266;28;20935;-71
2023/11/10 01:31:19;;;;;;;4.07;2.57;;;8.40;87.30;;;7.75;88.82;96661.78;4947193;28;20463;-72
2023/11/10 01:33:47;;;;;;;3.30;3.00;;;8.50;87.50;;;7.86;88.70;96669.06;4949055;28;20458;-71
2023/11/10 01:36:14;;;;;;;3.40;2.73;;;8.50;87.40;;;7.83;88.32;96672.22;4947034;28;20461;-72
2023/11/10 01:38:41;;;;;;;3.90;2.90;;;8.50;87.10;;;7.76;88.33;96660.75;4948778;28;20873;-72
2023/11/10 01:41:10;;;;;;;3.60;2.90;;;8.50;87.10;;;7.82;88.17;96661.69;4962054;28;21103;-72
2023/11/10 01:43:37;;;;;;;7.13;2.97;;;8.50;87.20;;;7.75;88.34;96651.88;4948061;28;20556;-72
2023/11/10 01:46:06;;;;;;;3.23;2.43;;;8.40;87.20;;;7.53;88.75;96659.66;4946469;28;20455;-72
2023/11/10 01:48:33;;;;;;;3.10;2.50;;;8.30;86.90;;;7.56;89.65;96650.28;4963089;28;20464;-73
2023/11/10 01:51:01;;;;;;;3.40;2.90;;;8.30;87.30;;;7.55;89.39;96643.28;4948356;28;20541;-71
2023/11/10 01:53:29;;;;;;;5.17;2.60;;;8.30;87.40;;;7.58;89.25;96643.66;4944863;28;20555;-72
2023/11/10 01:55:57;;;;;;;3.43;3.13;;;8.30;87.40;;;7.52;89.73;96617.69;4947670;28;20473;-73
2023/11/10 01:58:25;;;;;;;2.57;2.37;;;8.30;87.50;;;7.48;89.40;96628.09;4948738;28;20551;-72
2023/11/10 02:00:53;;;;;;;2.60;2.40;;;8.30;87.30;;;7.54;89.84;96636.25;4962870;28;20874;-72
2023/11/10 02:03:21;;;;;;;3.00;2.70;;;8.30;87.40;;;7.46;89.88;96634.72;4952036;29;20458;-71
2023/11/10 02:05:48;;;;;;;3.70;3.30;;;8.30;87.60;;;7.42;90.90;96623.59;4952055;28;20461;-71
2023/11/10 02:08:16;;;;;;;2.80;2.60;;;8.20;87.90;;;7.34;90.88;96615.88;4952035;28;20466;-72
2023/11/10 02:10:43;;;;;;;4.03;2.73;;;8.20;87.90;;;7.28;90.92;96612.25;4951053;28;20572;-71
2023/11/10 02:13:21;;;;;;;4.13;3.30;;;8.20;88.10;;;7.41;91.40;96626.53;4943743;29;20581;-72
2023/11/10 02:15:50;;;;;;;4.90;3.40;;;8.20;88.30;;;7.37;91.06;96624.31;4949581;28;20476;-71
2023/11/10 02:18:17;;;;;;;4.27;3.90;;;8.20;88.30;;;7.39;91.39;96621.38;4952557;28;20465;-72
2023/11/10 02:20:45;;;;;;;3.40;3.10;;;8.20;88.40;;;7.45;91.54;96617.78;4952731;28;20460;-70
2023/11/10 02:23:12;;;;;;;3.53;3.23;;;8.20;88.80;;;7.31;91.51;96609.09;4948355;28;20484;-71
2023/11/10 02:25:41;;;;;;;3.20;2.90;;;8.10;88.90;;;7.39;91.80;96612.53;4952578;28;20546;-71
2023/11/10 02:28:08;;;;;;;3.67;3.37;;;8.10;89.30;;;7.49;91.45;96602.00;4949706;28;20452;-72
2023/11/10 02:30:35;;;;;;;4.03;3.63;;;8.10;89.30;;;7.47;91.07;96607.63;4951371;28;20465;-70
2023/11/10 02:33:02;;;;;;;3.60;3.30;;;8.20;89.00;;;7.49;91.08;96596.63;4944966;28;20481;-72
2023/11/10 02:35:29;;;;;;;4.37;3.97;;;8.20;89.20;;;7.45;91.44;96614.28;4950196;29;20453;-73
2023/11/10 02:37:57;;;;;;;3.73;3.30;;;8.10;89.10;;;7.40;91.28;96624.91;4949474;28;20454;-72
2023/11/10 02:40:24;;;;;;;5.20;3.93;;;8.10;89.20;;;7.42;91.85;96612.84;4951750;28;20461;-72
2023/11/10 02:42:52;;;;;;;3.63;3.33;;;8.10;89.40;;;6.72;91.51;96526.44;4951123;29;20458;-70
2023/11/10 02:45:19;;;;;;;4.50;3.93;;;8.10;89.20;;;7.27;92.08;96610.59;4951187;28;20536;-71
2023/11/10 02:47:47;;;;;;;4.20;3.80;;;8.10;89.10;;;7.32;91.91;96613.41;4948550;28;20460;-72
2023/11/10 02:50:14;;;;;;;4.50;3.73;;;8.10;89.50;;;7.37;92.24;96618.94;4948498;28;20529;-71
2023/11/10 02:52:41;;;;;;;3.63;3.20;;;8.10;89.60;;;7.48;91.93;96606.59;4946998;28;20478;-71
2023/11/10 02:55:09;;;;;;;4.30;3.90;;;8.10;89.60;;;7.45;91.86;96598.16;4941113;28;21266;-72
2023/11/10 02:57:36;;;;;;;5.80;4.07;;;8.10;89.50;;;7.48;91.38;96589.63;4947509;29;20514;-72
2023/11/10 03:00:09;;;;;;;4.43;4.03;;;8.10;89.70;;;7.41;91.40;96584.34;4944702;28;20489;-73
2023/11/10 03:02:36;;;;;;;4.63;4.23;;;8.10;89.50;;;7.33;92.18;96582.00;4946441;28;20462;-70
2023/11/10 03:05:04;;;;;;;4.40;4.03;;;8.00;89.90;;;7.36;92.18;96582.38;4943129;28;20926;-72
2023/11/10 03:07:32;;;;;;;5.10;4.37;;;8.00;90.10;;;7.28;92.88;96593.44;4949630;29;20780;-71
2023/11/10 03:09:59;;;;;;;4.43;4.03;;;8.00;90.10;;;7.23;93.49;96587.94;4950123;28;20780;-71
2023/11/10 03:12:27;;;;;;;4.80;4.40;;;8.00;90.30;;;7.25;93.23;96593.91;4948514;28;20534;-71
2023/11/10 03:14:54;;;;;;;4.27;3.87;;;7.90;90.30;;;7.18;92.62;96579.72;4947594;28;20455;-71
2023/11/10 03:17:23;;;;;;;4.90;4.10;;;8.00;90.50;;;7.23;93.18;96594.13;4949363;28;20469;-71
2023/11/10 03:19:50;;;;;;;5.00;4.50;;;8.00;90.40;;;7.27;93.65;96583.75;4962242;28;20462;-72
2023/11/10 03:22:18;;;;;;;4.47;4.07;;;8.00;90.50;;;7.29;93.12;96576.28;4945537;28;20467;-71
2023/11/10 03:24:45;;;;;;;4.67;4.20;;;8.00;90.50;;;7.34;92.72;96579.06;4946410;28;20875;-71
2023/11/10 03:27:13;;;;;;;5.83;4.43;;;8.00;90.50;;;7.32;93.74;96578.50;4950198;28;20580;-71
2023/11/10 03:29:40;;;;;;;4.10;3.70;;;8.00;90.60;;;7.32;93.53;96570.44;4948730;28;20473;-71
2023/11/10 03:32:07;;;;;;;4.57;4.17;;;8.00;90.60;;;7.35;93.54;96575.38;4948137;28;20873;-71
2023/11/10 03:34:39;;;;;;;5.00;4.57;;;8.00;90.70;;;7.34;93.43;96571.00;4947272;29;20461;-70
2023/11/10 03:37:07;;;;;;;4.50;4.10;;;8.00;90.50;;;7.40;92.38;96573.84;4946232;29;20628;-72
2023/11/10 03:39:35;;;;;;;5.37;4.57;;;8.00;90.40;;;7.37;92.33;96575.13;4948390;28;20571;-71
2023/11/10 03:42:02;;;;;;;5.77;4.77;;;8.00;90.40;;;7.26;93.31;96568.69;4949125;28;20450;-71
2023/11/10 03:44:29;;;;;;;4.30;3.90;;;8.00;90.40;;;6.81;93.62;96500.09;4947935;28;20465;-72
2023/11/10 03:46:58;;;;;;;6.80;4.70;;;8.00;90.60;;;7.20;93.76;96577.63;4947564;29;21012;-70
2023/11/10 03:49:26;;;;;;;4.97;4.57;;;7.90;90.70;;;7.31;93.34;96568.78;4948437;29;20440;-71
2023/11/10 03:51:55;;;;;;;6.00;4.77;;;8.00;90.70;;;7.22;93.69;96580.94;4946787;28;20996;-70
2023/11/10 03:54:22;;;;;;;6.47;4.17;;;8.00;90.70;;;7.28;94.01;96571.13;4949107;29;20477;-71
2023/11/10 03:56:49;;;;;;;5.00;4.40;;;7.90;91.00;;;7.25;93.65;96571.56;4945569;28;20551;-71
2023/11/10 03:59:17;;;;;;;5.60;4.57;;;7.90;91.00;;;7.24;94.40;96568.09;4947987;28;20509;-71
2023/11/10 04:01:44;;;;;;;5.07;4.57;;;7.90;91.10;;;7.22;94.40;96580.94;4943232;28;20473;-72
2023/11/10 04:04:11;;;;;;;5.47;4.40;;;7.90;91.00;;;7.13;94.71;96575.06;4947008;29;20465;-72
2023/11/10 04:06:39;;;;;;;5.20;4.60;;;7.90;90.90;;;7.25;94.20;96575.09;4946980;28;20460;-71
2023/11/10 04:09:08;;;;;;;5.77;4.63;;;8.00;91.00;;;7.21;94.76;96574.72;4948292;28;20950;-72
2023/11/10 04:11:35;;;;;;;4.33;3.93;;;7.90;91.10;;;7.16;94.68;96573.78;4943179;28;20826;-73
2023/11/10 04:14:03;;;;;;;5.33;4.80;;;8.00;91.00;;;7.15;94.86;96581.03;4946584;28;20478;-73
2023/11/10 04:16:30;;;;;;;5.80;4.80;;;7.90;91.00;;;7.20;94.55;96583.84;4945191;28;20568;-73
2023/11/10 04:18:57;;;;;;;4.73;4.17;;;7.90;90.90;;;7.16;95.02;96560.34;4948907;28;20465;-71
2023/11/10 04:21:27;;;;;;;5.47;4.67;;;8.00;91.20;;;7.26;95.08;96576.72;4943582;29;20451;-71
2023/11/10 04:23:54;;;;;;;5.70;4.67;;;8.00;91.20;;;6.61;95.04;96473.56;4960384;28;20467;-72
2023/11/10 04:26:22;;;;;;;5.20;4.40;;;7.90;91.10;;;7.19;94.82;96554.50;4946884;28;20927;-72
2023/11/10 04:28:50;;;;;;;5.20;4.70;;;7.90;91.00;;;7.23;94.32;96551.13;4961869;28;21181;-72
2023/11/10 04:31:18;;;;;;;5.60;4.50;;;7.90;91.00;;;7.22;94.69;96556.75;4945336;28;20466;-72
2023/11/10 04:33:45;;;;;;;4.80;4.40;;;7.90;90.90;;;7.25;94.61;96545.53;4942562;29;20466;-71
2023/11/10 04:36:13;;;;;;;5.83;4.50;;;8.00;90.90;;;7.15;94.72;96542.59;4945464;28;21343;-72
2023/11/10 04:38:43;;;;;;;7.13;4.70;;;7.90;90.90;;;7.19;94.98;96549.13;4945451;28;20462;-72
2023/11/10 04:41:10;;;;;;;5.57;4.33;;;7.90;91.20;;;7.33;94.92;96557.81;4945684;28;20667;-71
2023/11/10 04:43:41;;;;;;;5.80;5.20;;;8.00;91.40;;;7.13;95.17;96539.31;4947564;28;20455;-72
2023/11/10 04:46:08;;;;;;;4.47;4.07;;;7.90;91.30;;;7.05;95.16;96535.94;4947215;28;20469;-71
2023/11/10 04:48:36;;;;;;;4.70;4.17;;;7.90;91.30;;;7.17;94.67;96551.25;4948593;29;20441;-71
2023/11/10 04:51:04;;;;;;;4.70;4.30;;;7.90;91.00;;;7.15;95.18;96553.34;4949026;28;20445;-72
2023/11/10 04:53:31;;;;;;;4.70;4.20;;;7.90;91.20;;;7.22;94.57;96541.44;4950046;28;20525;-72
2023/11/10 04:55:58;;;;;;;5.20;4.30;;;7.90;91.30;;;7.30;94.73;96563.66;4946409;28;20457;-71
2023/11/10 04:58:26;;;;;;;5.93;3.70;;;7.90;91.20;;;7.27;94.28;96559.56;4946606;28;20462;-71
2023/11/10 05:00:55;;;;;;;5.60;4.10;;;8.00;91.00;;;7.38;94.22;96566.00;4941648;28;20556;-71
2023/11/10 05:03:24;;;;;;;5.20;4.43;;;8.00;91.40;;;7.32;94.61;96565.06;4946933;28;20999;-72
2023/11/10 05:05:51;;;;;;;5.90;4.77;;;8.00;91.10;;;7.39;93.57;96574.91;4947238;28;20449;-71
2023/11/10 05:08:19;;;;;;;4.67;4.10;;;8.00;91.00;;;7.41;93.65;96564.75;4947454;29;20458;-71
2023/11/10 05:10:46;;;;;;;4.87;3.80;;;8.10;90.90;;;7.30;93.97;96561.78;4947620;28;20466;-71
2023/11/10 05:13:13;;;;;;;5.73;4.80;;;8.00;90.80;;;7.44;93.93;96548.97;4940010;29;20493;-71
2023/11/10 05:15:42;;;;;;;3.33;3.03;;;8.10;91.00;;;7.53;92.93;96554.00;4946547;28;20516;-71
2023/11/10 05:18:12;;;;;;;4.27;3.87;;;8.10;90.70;;;7.43;92.93;96554.56;4945258;28;20463;-71
2023/11/10 05:20:39;;;;;;;4.30;3.90;;;8.10;90.50;;;7.41;92.78;96554.78;4947638;28;20537;-71
2023/11/10 05:23:06;;;;;;;4.40;4.00;;;8.10;90.30;;;7.47;92.61;96555.75;4962390;28;20981;-71
2023/11/10 05:25:35;;;;;;;4.60;4.20;;;8.10;90.30;;;7.46;92.98;96552.25;4947837;28;20507;-72
2023/11/10 05:28:02;;;;;;;4.70;4.30;;;8.10;90.50;;;7.39;92.73;96556.09;4945079;28;20470;-72
2023/11/10 05:30:30;;;;;;;5.53;4.63;;;8.10;90.30;;;7.49;91.96;96553.63;4944354;28;20778;-72
2023/11/10 05:32:57;;;;;;;7.17;4.90;;;8.10;90.30;;;7.42;92.23;96561.00;4947748;28;20474;-73
2023/11/10 05:35:25;;;;;;;5.47;4.97;;;8.10;90.10;;;7.16;93.23;96522.75;4948119;28;20500;-70
2023/11/10 05:37:53;;;;;;;6.07;4.93;;;8.10;90.40;;;7.34;93.22;96560.28;4946445;28;20534;-70
2023/11/10 05:40:21;;;;;;;5.43;4.20;;;8.10;90.40;;;7.39;93.51;96561.47;4949644;29;20531;-70
2023/11/10 05:42:48;;;;;;;5.40;4.90;;;8.10;90.50;;;7.35;93.59;96556.56;4940517;29;20555;-71
2023/11/10 05:45:16;;;;;;;5.00;4.40;;;8.10;90.50;;;7.36;94.10;96560.88;4948019;28;20465;-72
2023/11/10 05:47:43;;;;;;;6.07;5.43;;;8.00;90.60;;;7.29;94.14;96568.22;4947740;28;20450;-71
2023/11/10 05:50:11;;;;;;;4.90;4.40;;;8.00;90.90;;;7.19;95.13;96567.94;4947376;28;20457;-72
2023/11/10 05:52:39;;;;;;;5.27;4.50;;;7.90;91.00;;;7.19;95.65;96570.63;4946706;28;20450;-71
2023/11/10 05:55:08;;;;;;;5.50;4.30;;;7.90;91.40;;;7.12;96.39;96573.41;4946566;28;20454;-71
2023/11/10 05:57:36;;;;;;;4.90;4.10;;;7.90;91.60;;;7.12;96.00;96572.59;4948023;28;20485;-70
2023/11/10 06:00:05;;;;;;;7.63;4.70;;;7.90;91.70;;;7.09;96.50;96572.00;4960631;28;20605;-70
2023/11/10 06:02:33;;;;;;;4.93;4.43;;;7.80;91.90;;;7.16;95.92;96553.13;4933949;28;20448;-70
2023/11/10 06:05:00;;;;;;;5.27;4.70;;;7.90;92.10;;;7.25;95.54;96569.72;4941955;28;20466;-73
2023/11/10 06:07:28;;;;;;;5.50;4.37;;;7.90;91.80;;;7.20;95.50;96573.09;4939054;28;20470;-71
2023/11/10 06:09:57;;;;;;;5.50;5.00;;;7.90;91.60;;;7.36;95.54;96577.00;4944999;29;20446;-71
2023/11/10 06:12:25;;;;;;;5.30;4.50;;;8.00;91.80;;;7.23;95.70;96596.00;4942647;29;20494;-71
2023/11/10 06:14:52;;;;;;;6.70;4.97;;;8.00;91.70;;;7.24;95.98;96589.59;4940862;29;20846;-72
2023/11/10 06:17:19;;;;;;;5.73;4.50;;;8.00;91.60;;;7.06;97.08;96583.22;4944874;28;20459;-72
2023/11/10 06:19:47;;;;;;;5.20;4.70;;;7.90;91.90;;;7.13;97.26;96588.50;4945921;29;21010;-72
2023/11/10 06:22:14;;;;;;;5.50;4.90;;;7.90;92.40;;;7.16;97.18;96601.47;4940238;28;20480;-71
2023/11/10 06:24:41;;;;;;;4.60;4.10;;;7.90;92.50;;;6.83;96.97;96535.63;4945995;28;20470;-71
2023/11/10 06:27:10;;;;;;;6.23;5.10;;;7.90;92.40;;;6.96;97.46;96588.31;4949241;28;20470;-71
2023/11/10 06:29:37;;;;;;;6.23;5.30;;;7.90;92.20;;;7.13;97.53;96593.88;4945413;28;20467;-72
2023/11/10 06:32:06;;;;;;;5.10;4.60;;;7.90;92.50;;;7.25;97.65;96591.22;4945832;28;20552;-70
2023/11/10 06:34:35;;;;;;;10.30;5.30;;;7.90;92.60;;;7.01;97.09;96591.13;4943038;28;20474;-71
2023/11/10 06:37:02;;;;;;;12.27;5.87;;;7.90;92.10;;;7.07;97.37;96606.34;4941604;29;20544;-74
2023/11/10 06:39:30;;;;;;;10.07;5.37;;;7.90;92.20;;;7.18;97.34;96585.09;4947937;28;21248;-72
2023/11/10 06:41:57;;;;;;;9.07;5.03;;;7.90;92.70;;;6.95;97.95;96578.63;4944655;28;20473;-77
2023/11/10 06:44:26;;;;;;;7.67;5.53;;;7.90;92.40;;;7.04;98.44;96606.78;4946886;28;20543;-74
2023/11/10 06:46:54;;;;;;;6.53;5.67;;;7.90;92.70;;;7.12;98.61;96602.16;4944796;28;20447;-71
2023/11/10 06:49:21;;;;;;;13.47;6.13;;;7.90;93.00;;;7.16;98.63;96611.38;4947366;29;20692;-77
2023/11/10 06:51:48;;;;;;;7.40;5.90;;;7.80;93.20;;;7.19;98.21;96608.22;4949835;28;20492;-71
2023/11/10 06:54:16;;;;;;;9.27;6.10;;;7.90;92.90;;;7.16;98.28;96614.06;4948619;29;20481;-71
2023/11/10 06:56:45;;;;;;;7.90;5.30;;;7.90;92.80;;;7.12;98.85;96619.06;4949555;28;20532;-73
2023/11/10 06:59:12;;;;;;;6.90;6.30;;;7.90;93.20;;;6.57;99.92;96555.56;4950261;29;20465;-72
2023/11/10 07:01:41;;;;;;;10.07;7.07;;;7.80;93.20;;;7.02;99.23;96594.63;4946220;29;20946;-82
2023/11/10 07:04:09;;;;;;;8.63;6.93;;;8.00;93.60;;;7.17;99.90;96615.69;4944804;28;20493;-73
2023/11/10 07:06:37;;;;;;;7.07;6.10;;;7.90;93.30;;;7.15;99.65;96599.00;4947114;28;20461;-74
2023/11/10 07:09:04;;;;;;;7.47;6.60;;;7.90;93.40;;;7.21;98.46;96588.16;4947725;28;20476;-75
2023/11/10 07:11:32;;;;;;;7.40;6.50;;;8.00;93.30;;;7.29;98.81;96603.13;4946149;28;21033;-75
2023/11/10 07:14:02;;;;;;;10.43;6.93;;;8.00;93.10;;;7.29;98.59;96602.34;4952064;28;20470;-74
2023/11/10 07:16:29;;;;;;;8.57;7.67;;;8.00;93.00;;;7.37;98.24;96608.19;4952944;28;20458;-73
2023/11/10 07:18:58;;;;;;;8.10;6.90;;;8.10;93.00;;;7.31;99.54;96600.22;4964286;28;20497;-74
2023/11/10 07:21:29;;;;;;;9.10;7.00;;;8.10;93.30;;;7.37;97.94;96608.19;4947888;29;20447;-73
2023/11/10 07:23:56;;;;;;;8.10;6.50;;;8.20;93.10;;;7.52;97.47;96606.94;4944891;28;20968;-76
2023/11/10 07:26:23;;;;;;;6.53;5.83;;;8.20;93.00;;;7.68;97.59;96605.44;4952173;29;20469;-73
2023/11/10 07:28:51;;;;;;;9.00;7.60;;;8.30;92.90;;;7.60;96.70;96598.53;4954278;28;20458;-71
2023/11/10 07:31:18;;;;;;;8.23;7.17;;;8.30;92.20;;;7.60;94.76;96603.91;4953880;28;20458;-76
2023/11/10 07:33:45;;;;;;;7.80;6.97;;;8.30;91.50;;;7.58;95.82;96621.31;4961176;28;20880;-77
2023/11/10 07:36:14;;;;;;;9.20;7.73;;;8.30;91.80;;;7.63;95.90;96629.53;4956886;28;20454;-75
2023/11/10 07:38:41;;;;;;;9.27;7.93;;;8.20;91.80;;;7.62;96.01;96628.69;4951023;28;20470;-71
2023/11/10 07:41:09;;;;;;;8.67;7.60;;;8.30;92.00;;;7.60;96.26;96622.72;4945096;28;20462;-77
2023/11/10 07:43:37;;;;;;;8.20;6.67;;;8.30;92.00;;;7.60;95.41;96630.78;4949223;28;20462;-72
2023/11/10 07:46:05;;;;;;;10.00;7.40;;;8.30;91.60;;;7.51;96.06;96632.19;4961401;28;20477;-75
2023/11/10 07:48:35;;;;;;;7.73;6.87;;;8.30;91.50;;;7.46;95.58;96640.09;4945702;28;20459;-76
2023/11/10 07:51:03;;;;;;;8.47;7.40;;;8.30;91.30;;;7.41;96.75;96631.91;4946720;28;20470;-76
2023/11/10 07:53:32;;;;;;;8.93;7.20;;;8.20;91.40;;;7.47;95.53;96636.38;4949481;28;20486;-80
2023/11/10 07:56:00;;;;;;;8.90;7.07;;;8.30;91.60;;;7.53;94.91;96643.53;4947582;28;20466;-84
2023/11/10 07:58:27;;;;;;;11.20;7.60;;;8.30;91.30;;;7.40;96.69;96646.41;4947737;28;20512;-78
2023/11/10 08:00:55;;;;;;;9.80;8.00;;;8.20;91.70;;;7.41;96.42;96648.03;4946708;28;21200;-75
2023/11/10 08:03:22;;;;;;;8.67;7.87;;;8.20;91.40;;;7.46;96.62;96646.31;4949106;28;20541;-78
2023/11/10 08:05:51;;;;;;;9.90;7.33;;;8.20;91.80;;;7.49;96.33;96640.47;4950941;28;21138;-80
2023/11/10 08:08:18;;;;;;;12.17;8.50;;;8.20;91.80;;;7.50;96.31;96641.28;4955690;28;20460;-81
2023/11/10 08:10:47;;;;;;;9.40;8.35;;;8.20;91.70;;;7.47;96.29;96618.38;4951075;28;20459;-79
2023/11/10 08:13:15;;;;;;;9.33;8.07;;;8.30;91.90;;;7.60;95.74;96638.84;4945405;28;20282;-80
2023/11/10 08:15:45;;;;;;;11.50;8.00;;;8.30;91.40;;;7.73;94.90;96645.88;4954423;28;20474;-77
2023/11/10 08:18:14;;;;;;;11.90;7.63;;;8.50;91.40;;;7.74;94.03;96622.53;4953081;28;20457;-74
2023/11/10 08:20:42;;;;;;;11.17;9.03;;;8.50;91.20;;;7.93;92.63;96640.19;4952947;28;20538;-76
2023/11/10 08:23:11;;;;;;;10.87;8.07;;;8.60;90.60;;;8.04;92.52;96645.81;4952335;28;20458;-77
2023/11/10 08:25:38;;;;;;;9.83;8.43;;;8.60;90.80;;;8.04;92.71;96646.66;4961740;28;20482;-73
2023/11/10 08:28:08;;;;;;;8.33;7.17;;;8.70;90.60;;;8.03;92.88;96639.59;4967772;28;20507;-71
2023/11/10 08:30:35;;;;;;;8.47;7.40;;;8.60;90.50;;;8.18;90.63;96641.03;4950844;28;20462;-78
2023/11/10 08:33:04;;;;;;;7.70;6.90;;;8.70;90.10;;;8.03;91.58;96641.50;4963769;28;20459;-74
2023/11/10 08:35:31;;;;;;;6.27;5.20;;;8.70;89.80;;;8.10;88.96;96650.25;4950096;28;20476;-76
2023/11/10 08:37:58;;;;;;;6.50;5.87;;;8.80;88.80;;;8.08;88.33;96652.38;4959662;28;20840;-76
2023/11/10 08:40:26;;;;;;;6.93;5.60;;;8.80;88.00;;;7.72;91.05;96654.19;4947093;28;20467;-78
2023/11/10 08:42:53;;;;;;;4.83;4.20;;;8.60;88.20;;;8.07;88.66;96656.13;4943604;28;21069;-75
2023/11/10 08:45:22;;;;;;;4.70;4.30;;;8.60;88.20;;;8.34;87.77;96659.19;4946101;28;20446;-78
2023/11/10 08:47:50;;;;;;;4.20;3.80;;;8.90;88.00;;;8.22;87.49;96655.66;4956840;28;20485;-71
2023/11/10 08:50:18;;;;;;;6.63;5.07;;;8.90;87.10;;;8.22;87.10;96661.06;4951386;28;20573;-78
2023/11/10 08:52:47;;;;;;;7.03;3.73;;;8.90;86.90;;;7.45;88.00;96587.41;4951838;28;20938;-77
2023/11/10 08:55:20;;;;;;;4.70;3.70;;;8.80;86.60;;;8.15;86.77;96655.78;4947853;28;20983;-77
2023/11/10 08:57:48;;;;;;;3.73;3.43;;;8.90;86.50;;;7.91;87.64;96642.31;4953010;28;20454;-76
2023/11/10 09:00:17;;;;;;;4.10;3.57;;;8.80;86.60;;;7.92;87.54;96643.13;4947810;28;20468;-76
2023/11/10 09:02:46;;;;;;;4.47;4.07;;;8.70;86.70;;;8.11;87.34;96641.13;4941069;28;20458;-76
2023/11/10 09:05:14;;;;;;;4.07;3.50;;;8.80;86.90;;;8.02;86.86;96637.16;4947821;28;20461;-75
2023/11/10 09:07:42;;;;;;;3.20;2.57;;;8.80;86.30;;;8.14;86.14;96631.78;4945192;28;20806;-75
2023/11/10 09:10:12;;;;;;;4.23;2.77;;;8.90;86.10;;;8.24;84.78;96645.50;4944248;28;20478;-77
2023/11/10 09:12:42;;;;;;;1.97;1.70;;;8.90;85.50;;;8.33;83.64;96644.06;4942792;28;20521;-76
2023/11/10 09:15:12;;;;;;;2.87;1.80;;;8.90;85.00;;;8.32;83.42;96661.25;4940561;29;20490;-75
2023/11/10 09:17:42;;;;;;;2.30;1.57;;;9.10;84.70;;;8.54;82.48;96649.13;4936755;28;20451;-75
2023/11/10 09:20:13;;;;;;;0.83;0.80;;;9.20;84.60;;;8.58;79.82;96639.53;4939385;28;20971;-73
2023/11/10 09:22:40;;;;;;;1.03;0.93;;;9.30;82.80;;;8.58;79.32;96629.56;4943127;28;20472;-76
2023/11/10 09:25:13;;;;;;;2.60;1.00;;;9.30;82.20;;;9.08;77.13;96651.56;4946589;29;20839;-71
2023/11/10 09:27:42;;;;;;;1.07;0.87;;;9.60;81.70;;;8.98;75.85;96649.50;4946879;28;20530;-73
2023/11/10 09:30:11;;;;;;;0.80;0.67;;;9.70;80.80;;;9.27;76.38;96651.41;4942129;28;20979;-73
2023/11/10 09:32:38;;;;;;;2.00;1.00;;;9.80;81.00;;;9.15;75.67;96648.75;4939315;28;20454;-73
2023/11/10 09:35:06;;;;;;;0.67;0.50;;;9.80;80.30;;;9.14;75.11;96649.81;4945189;28;20482;-71
2023/11/10 09:37:36;;;;;;;1.57;0.90;;;9.90;79.90;;;9.01;75.07;96649.00;4940326;28;20460;-74
2023/11/10 09:40:05;;;;;;;0.90;0.60;;;9.80;79.50;;;9.03;74.21;96654.19;4942336;28;20470;-73
2023/11/10 09:42:32;;;;;;;0.60;0.60;;;9.80;79.30;;;9.21;75.76;96658.56;4947479;28;20836;-75
2023/11/10 09:45:01;;;;;;;0.77;0.50;;;9.90;79.90;;;9.52;72.44;96664.53;4948111;28;20962;-74
2023/11/10 09:47:30;;;;;;;0.80;0.50;;;10.00;77.40;;;9.56;72.07;96654.09;4944553;28;20461;-74
2023/11/10 09:49:59;;;;;;;1.20;0.50;;;10.30;77.30;;;9.76;72.74;96650.91;4956498;28;20452;-75
2023/11/10 09:52:29;;;;;;;0.90;0.60;;;10.30;77.80;;;9.81;70.62;96661.81;4941559;28;21233;-76
2023/11/10 09:54:57;;;;;;;0.73;0.60;;;10.50;76.50;;;9.43;73.07;96660.59;4958989;28;20960;-76
2023/11/10 09:57:26;;;;;;;0.90;0.60;;;10.30;76.70;;;9.50;72.46;96661.28;4947444;28;20542;-74
2023/11/10 09:59:54;;;;;;;1.63;0.70;;;10.30;76.60;;;9.50;71.62;96658.56;4946062;28;20998;-77
2023/11/10 10:02:21;;;;;;;1.17;0.40;;;10.20;75.80;;;9.27;70.02;96654.09;4942352;28;21199;-75
2023/11/10 10:04:49;;;;;;;1.00;0.60;;;10.10;75.00;;;9.26;70.92;96660.56;4955126;28;20535;-76
2023/11/10 10:07:19;;;;;;;0.80;0.33;;;10.00;75.50;;;9.41;70.13;96670.81;4946000;28;20460;-76
2023/11/10 10:09:46;;;;;;;2.00;0.70;;;10.00;74.90;;;9.29;70.16;96666.28;4959305;28;20454;-73
2023/11/10 10:12:15;;;;;;;1.30;1.00;;;10.00;74.70;;;9.15;71.59;96664.91;4945573;28;20825;-76
2023/11/10 10:14:54;;;;;;;0.93;0.50;;;9.90;76.30;;;9.43;70.22;96655.19;4942377;28;20503;-76
2023/11/10 10:17:32;;;;;;;1.00;0.57;;;10.10;75.00;;;9.57;69.34;96659.22;4943991;28;20454;-74
2023/11/10 10:20:13;;;;;;;1.80;0.77;;;10.20;74.30;;;9.87;68.40;96644.63;4948356;28;20455;-75
2023/11/10 10:22:45;;;;;;;1.70;0.70;;;10.30;74.00;;;10.04;67.26;96652.75;4946705;28;20484;-74
2023/11/10 10:25:14;;;;;;;0.93;0.40;;;10.70;73.40;;;9.98;67.62;96650.22;4946728;28;20815;-75
2023/11/10 10:27:44;;;;;;;2.70;0.70;;;10.70;73.20;;;10.01;68.09;96645.16;4946767;28;20971;-72
2023/11/10 10:30:12;;;;;;;0.50;0.43;;;10.70;73.90;;;9.98;67.37;96644.81;4949597;29;20488;-76
2023/11/10 10:32:40;;;;;;;0.50;0.40;;;10.60;73.20;;;9.33;67.84;96586.59;4949966;28;20469;-75
2023/11/10 10:35:09;;;;;;;0.87;0.40;;;10.50;72.90;;;10.16;65.71;96641.03;4949537;28;20839;-72